DTKA/TBJ METAR and TAF weather

Enter ICAO airport designator
Station Type Date Time Source
DTKA METAR 2021/04/18 03:00 UTC NOAA

DTKA 180300Z VRB01KT 9999 SCT020 SCT030 09/07 Q1015 NOSIG


Station Type Date Time Source
DTKA Decoded METAR 2021/04/18 03:00 UTC NOAA

Tabarka, Tunisia (DTKA) 36-57N 008-45E 21M
Apr 17, 2021 - 11:00 PM EDT / 2021.04.18 0300 UTC
Wind: Variable at 1 MPH (1 KT):0
Visibility: greater than 7 mile(s):0
Sky conditions: partly cloudy
Temperature: 48 F (9 C)
Dew Point: 44 F (7 C)
Relative Humidity: 87%
Pressure (altimeter): 29.97 in. Hg (1015 hPa)
ob: DTKA 180300Z VRB01KT 9999 SCT020 SCT030 09/07 Q1015 NOSIG
cycle: 3

Station Type Date Time Source
DTKA TAF 2021/01/24 22:42 UTC NOAA

TAF TAF DTKA 242100Z 2422/2607 29015KT 9999 SCT020
BECMG 2502/2504 27008KT

Example: see airport list